createdAt,value
2023-02-12T00:00:51.913Z,19.67
2023-02-12T00:03:18.745Z,18.63
2023-02-12T00:05:45.292Z,18.42
2023-02-12T00:08:12.181Z,18.70
2023-02-12T00:10:44.791Z,13.75
2023-02-12T00:13:12.064Z,16.65
2023-02-12T00:15:40.450Z,15.60
2023-02-12T00:18:06.985Z,21.77
2023-02-12T00:20:33.571Z,19.40
2023-02-12T00:23:00.114Z,18.73
2023-02-12T00:25:26.657Z,20.88
2023-02-12T00:27:53.150Z,19.05
2023-02-12T00:30:19.727Z,16.38
2023-02-12T00:32:46.474Z,25.67
2023-02-12T00:35:13.153Z,21.00
2023-02-12T00:37:39.769Z,16.77
2023-02-12T00:40:06.915Z,24.77
2023-02-12T00:42:33.505Z,17.63
2023-02-12T00:44:59.995Z,18.60
2023-02-12T00:47:26.521Z,18.60
2023-02-12T00:49:53.042Z,20.60
2023-02-12T00:52:19.577Z,19.25
2023-02-12T00:54:46.081Z,17.35
2023-02-12T00:57:13.947Z,16.73
2023-02-12T00:59:42.244Z,18.75
2023-02-12T01:02:08.742Z,18.48
2023-02-12T01:04:35.461Z,18.58
2023-02-12T01:07:02.042Z,20.10
2023-02-12T01:09:28.575Z,18.10
2023-02-12T01:11:55.108Z,20.65
2023-02-12T01:14:21.740Z,19.42
2023-02-12T01:16:48.224Z,22.67
2023-02-12T01:19:14.854Z,18.83
2023-02-12T01:21:42.453Z,22.70
2023-02-12T01:24:09.611Z,23.88
2023-02-12T01:26:36.459Z,21.15
2023-02-12T01:29:06.519Z,22.23
2023-02-12T01:31:37.580Z,17.20
2023-02-12T01:36:33.377Z,16.52
2023-02-12T01:39:00.046Z,20.52
2023-02-12T01:41:29.176Z,19.73
2023-02-12T01:44:20.967Z,19.70
2023-02-12T01:46:56.048Z,14.00
2023-02-12T01:49:26.825Z,15.75
2023-02-12T01:51:56.456Z,16.30
2023-02-12T01:54:25.768Z,21.70
2023-02-12T01:56:52.604Z,19.63
2023-02-12T01:59:19.985Z,20.27
2023-02-12T02:01:46.646Z,17.08
2023-02-12T02:04:17.076Z,23.75
2023-02-12T02:06:58.041Z,17.38
2023-02-12T02:09:25.421Z,17.27
2023-02-12T02:12:13.248Z,18.57
2023-02-12T02:14:41.007Z,22.30
2023-02-12T02:17:59.674Z,21.35
2023-02-12T02:20:45.057Z,18.48
2023-02-12T02:23:39.210Z,17.60
2023-02-12T02:26:33.011Z,25.90
2023-02-12T02:29:21.294Z,16.08
2023-02-12T02:32:17.078Z,22.38
2023-02-12T02:35:04.009Z,13.30
2023-02-12T02:37:36.371Z,16.48
2023-02-12T02:40:13.421Z,19.75
2023-02-12T02:42:52.230Z,13.82
2023-02-12T02:45:23.516Z,22.92
2023-02-12T02:47:55.571Z,15.65
2023-02-12T02:50:24.362Z,19.95
2023-02-12T02:53:02.951Z,19.50
2023-02-12T02:55:35.506Z,20.67
2023-02-12T02:58:10.290Z,19.52
2023-02-12T03:01:05.770Z,23.73
2023-02-12T03:03:36.066Z,19.65
2023-02-12T03:06:07.697Z,23.17
2023-02-12T03:08:43.724Z,22.27
2023-02-12T03:11:14.913Z,19.27
2023-02-12T03:13:47.354Z,21.08
2023-02-12T03:16:28.989Z,18.42
2023-02-12T03:19:02.369Z,24.35
2023-02-12T03:21:33.704Z,20.83
2023-02-12T03:24:15.247Z,17.95
2023-02-12T03:26:55.771Z,18.20
2023-02-12T03:29:22.266Z,26.27
2023-02-12T03:31:58.797Z,21.08
2023-02-12T03:34:53.922Z,22.55
2023-02-12T03:37:31.064Z,22.98
2023-02-12T03:40:04.074Z,24.10
2023-02-12T03:42:47.469Z,20.73
2023-02-12T03:45:34.295Z,18.73
2023-02-12T03:48:09.433Z,25.52
2023-02-12T03:50:41.972Z,21.98
2023-02-12T03:53:08.567Z,18.42
2023-02-12T03:55:39.464Z,18.70
2023-02-12T03:58:09.236Z,20.38
2023-02-12T04:00:37.912Z,26.65
2023-02-12T04:03:05.184Z,26.20
2023-02-12T04:05:31.731Z,28.55
2023-02-12T04:07:59.147Z,23.98
2023-02-12T04:10:33.112Z,22.73
2023-02-12T04:13:12.332Z,21.10
2023-02-12T04:15:41.718Z,23.20
2023-02-12T04:18:26.009Z,27.88
2023-02-12T04:21:06.660Z,20.60
2023-02-12T04:23:45.364Z,28.88
2023-02-12T04:26:34.396Z,21.65
2023-02-12T04:29:16.019Z,28.77
2023-02-12T04:31:55.946Z,25.50
2023-02-12T04:34:25.082Z,22.58
2023-02-12T04:37:14.659Z,26.17
2023-02-12T04:39:41.923Z,20.58
2023-02-12T04:42:08.605Z,24.02
2023-02-12T04:44:39.721Z,24.92
2023-02-12T04:49:32.876Z,26.00
2023-02-12T04:51:59.487Z,24.83
2023-02-12T04:54:26.030Z,23.50
2023-02-12T04:56:52.844Z,22.65
2023-02-12T04:59:19.367Z,25.63
2023-02-12T05:01:46.289Z,31.23
2023-02-12T05:04:15.454Z,25.20
2023-02-12T05:06:43.126Z,32.80
2023-02-12T05:09:14.318Z,25.23
2023-02-12T05:11:40.857Z,29.75
2023-02-12T05:14:07.342Z,22.33
2023-02-12T05:16:33.929Z,25.73
2023-02-12T05:19:00.502Z,28.38
2023-02-12T05:21:27.134Z,27.58
2023-02-12T05:23:53.600Z,30.95
2023-02-12T05:26:21.971Z,28.88
2023-02-12T05:28:48.598Z,27.02
2023-02-12T05:31:20.764Z,21.38
2023-02-12T05:33:48.481Z,26.17
2023-02-12T05:36:18.347Z,22.27
2023-02-12T05:38:44.886Z,24.60
2023-02-12T05:41:17.139Z,24.73
2023-02-12T05:43:43.947Z,25.27
2023-02-12T05:46:11.540Z,30.70
2023-02-12T05:48:39.075Z,25.73
2023-02-12T05:51:11.484Z,25.38
2023-02-12T05:53:39.061Z,29.50
2023-02-12T05:56:15.742Z,22.77
2023-02-12T05:58:44.631Z,30.17
2023-02-12T06:01:17.228Z,28.92
2023-02-12T06:03:43.831Z,27.42
2023-02-12T06:06:10.699Z,25.13
2023-02-12T06:08:37.255Z,23.67
2023-02-12T06:11:06.501Z,29.73
2023-02-12T06:13:33.381Z,26.77
2023-02-12T06:16:00.249Z,29.23
2023-02-12T06:18:27.048Z,25.35
2023-02-12T06:20:54.576Z,23.35
2023-02-12T06:23:22.183Z,28.90
2023-02-12T06:25:49.680Z,25.42
2023-02-12T06:28:16.288Z,25.90
2023-02-12T06:30:43.150Z,27.92
2023-02-12T06:33:09.764Z,28.83
2023-02-12T06:35:36.784Z,26.35
2023-02-12T06:38:03.822Z,35.97
2023-02-12T06:40:30.521Z,30.33
2023-02-12T06:42:57.298Z,26.40
2023-02-12T06:45:23.848Z,28.77
2023-02-12T06:47:50.683Z,23.38
2023-02-12T06:50:17.402Z,25.15
2023-02-12T06:52:44.024Z,26.60
2023-02-12T06:55:10.501Z,26.55
2023-02-12T06:57:37.000Z,27.92
2023-02-12T07:00:04.248Z,28.98
2023-02-12T07:02:30.812Z,26.50
2023-02-12T07:04:57.280Z,30.75
2023-02-12T07:07:23.812Z,30.65
2023-02-12T07:09:51.231Z,23.98
2023-02-12T07:12:18.268Z,22.10
2023-02-12T07:14:45.214Z,23.80
2023-02-12T07:17:11.831Z,28.25
2023-02-12T07:19:38.386Z,25.58
2023-02-12T07:22:04.920Z,24.63
2023-02-12T07:24:31.444Z,24.05
2023-02-12T07:26:57.997Z,26.95
2023-02-12T07:29:24.547Z,29.02
2023-02-12T07:31:51.135Z,29.75
2023-02-12T07:34:17.703Z,28.58
2023-02-12T07:36:44.390Z,23.90
2023-02-12T07:39:12.456Z,25.88
2023-02-12T07:41:39.098Z,22.33
2023-02-12T07:44:10.018Z,26.70
2023-02-12T07:46:41.683Z,24.98
2023-02-12T07:49:10.936Z,20.60
2023-02-12T07:51:38.001Z,29.17
2023-02-12T07:54:04.872Z,27.95
2023-02-12T07:56:35.293Z,24.20
2023-02-12T07:59:08.154Z,19.20
2023-02-12T08:01:36.782Z,19.00
2023-02-12T08:04:05.825Z,18.88
2023-02-12T08:06:34.675Z,21.95
2023-02-12T08:09:02.676Z,17.30
2023-02-12T08:11:29.866Z,26.90
2023-02-12T08:13:57.289Z,22.60
2023-02-12T08:16:25.365Z,25.08
2023-02-12T08:18:52.602Z,23.98
2023-02-12T08:21:22.671Z,20.40
2023-02-12T08:23:50.684Z,23.70
2023-02-12T08:26:21.635Z,25.38
2023-02-12T08:28:53.738Z,20.33
2023-02-12T08:31:22.593Z,26.23
2023-02-12T08:33:50.539Z,23.75
2023-02-12T08:36:19.487Z,21.08
2023-02-12T08:38:50.397Z,22.60
2023-02-12T08:41:21.763Z,23.63
2023-02-12T08:43:49.408Z,22.48
2023-02-12T08:46:21.401Z,29.40
2023-02-12T08:48:48.058Z,23.38
2023-02-12T08:51:20.317Z,29.30
2023-02-12T08:53:48.760Z,25.92
2023-02-12T08:56:17.370Z,23.98
2023-02-12T08:58:44.658Z,23.27
2023-02-12T09:01:17.097Z,18.50
2023-02-12T09:03:44.272Z,23.50
2023-02-12T09:06:11.383Z,25.23
2023-02-12T09:08:38.841Z,22.58
2023-02-12T09:11:14.214Z,19.30
2023-02-12T09:13:43.789Z,21.50
2023-02-12T09:16:10.365Z,25.15
2023-02-12T09:18:36.950Z,20.92
2023-02-12T09:21:06.454Z,22.90
2023-02-12T09:23:33.092Z,23.88
2023-02-12T09:26:00.269Z,26.23
2023-02-12T09:28:26.860Z,22.95
2023-02-12T09:30:53.590Z,24.20
2023-02-12T09:33:20.279Z,24.52
2023-02-12T09:35:46.775Z,32.40
2023-02-12T09:38:13.294Z,26.05
2023-02-12T09:40:42.627Z,26.20
2023-02-12T09:43:18.964Z,24.40
2023-02-12T09:45:58.781Z,23.23
2023-02-12T09:48:41.115Z,27.88
2023-02-12T09:51:08.803Z,30.17
2023-02-12T09:53:38.933Z,19.92
2023-02-12T09:56:14.086Z,29.83
2023-02-12T09:58:52.032Z,21.10
2023-02-12T10:01:21.327Z,20.08
2023-02-12T10:03:51.275Z,26.58
2023-02-12T10:06:21.763Z,22.98
2023-02-12T10:09:13.359Z,28.27
2023-02-12T10:11:47.230Z,30.00
2023-02-12T10:14:30.194Z,30.42
2023-02-12T10:17:09.712Z,27.38
2023-02-12T10:20:01.095Z,28.30
2023-02-12T10:25:29.633Z,21.23
2023-02-12T10:28:00.098Z,28.67
2023-02-12T10:30:35.656Z,25.52
2023-02-12T10:33:08.263Z,23.23
2023-02-12T10:35:35.573Z,24.02
2023-02-12T10:38:06.348Z,23.63
2023-02-12T10:40:34.606Z,23.15
2023-02-12T10:43:02.108Z,32.28
2023-02-12T10:45:35.423Z,31.48
2023-02-12T10:48:09.811Z,25.45
2023-02-12T10:50:55.971Z,27.15
2023-02-12T10:53:24.529Z,30.75
2023-02-12T10:56:07.127Z,29.90
2023-02-12T10:58:33.771Z,30.67
2023-02-12T11:01:01.524Z,30.63
2023-02-12T11:03:37.654Z,24.55
2023-02-12T11:06:13.687Z,27.55
2023-02-12T11:08:40.840Z,28.00
2023-02-12T11:11:16.348Z,25.50
2023-02-12T11:13:49.048Z,20.98
2023-02-12T11:16:27.627Z,20.95
2023-02-12T11:18:59.239Z,20.80
2023-02-12T11:21:25.882Z,21.60
2023-02-12T11:24:17.584Z,18.42
2023-02-12T11:26:44.355Z,16.52
2023-02-12T11:29:18.993Z,15.77
2023-02-12T11:32:01.083Z,14.95
2023-02-12T11:34:27.787Z,14.57
2023-02-12T11:36:54.498Z,19.92
2023-02-12T11:39:36.014Z,15.82
2023-02-12T11:42:21.207Z,14.35
2023-02-12T11:45:03.562Z,17.10
2023-02-12T11:47:34.388Z,13.95
2023-02-12T11:50:30.941Z,15.02
2023-02-12T11:53:09.967Z,16.50
2023-02-12T11:55:39.166Z,14.68
2023-02-12T11:58:20.614Z,12.73
2023-02-12T12:01:16.194Z,11.23
2023-02-12T12:03:59.462Z,14.00
2023-02-12T12:06:36.506Z,13.63
2023-02-12T12:09:11.972Z,12.38
2023-02-12T12:11:57.688Z,12.65
2023-02-12T12:14:34.244Z,12.90
2023-02-12T12:17:56.404Z,15.65
2023-02-12T12:20:25.736Z,17.15
2023-02-12T12:23:02.718Z,18.45
2023-02-12T12:25:37.492Z,16.45
2023-02-12T12:28:10.721Z,12.93
2023-02-12T12:31:01.965Z,12.30
2023-02-12T12:36:36.758Z,11.98
2023-02-12T12:39:27.230Z,11.95
2023-02-12T12:42:13.516Z,12.18
2023-02-12T12:45:10.845Z,9.48
2023-02-12T12:47:56.132Z,9.18
2023-02-12T12:50:43.180Z,10.18
2023-02-12T12:53:24.394Z,10.80
2023-02-12T12:58:23.181Z,9.68
2023-02-12T13:01:14.612Z,9.80
2023-02-12T13:06:26.165Z,11.15
2023-02-12T13:09:14.979Z,10.60
2023-02-12T13:12:00.185Z,9.77
2023-02-12T13:14:47.927Z,9.00
2023-02-12T13:17:23.956Z,10.07
2023-02-12T13:20:10.280Z,9.00
2023-02-12T13:22:43.427Z,9.55
2023-02-12T13:25:28.718Z,8.27
2023-02-12T13:27:59.089Z,9.93
2023-02-12T13:33:36.917Z,8.70
2023-02-12T13:36:06.478Z,8.48
2023-02-12T13:38:40.682Z,9.27
2023-02-12T13:41:09.457Z,8.32
2023-02-12T13:44:07.061Z,13.73
2023-02-12T13:46:52.287Z,10.20
2023-02-12T13:49:45.832Z,7.63
2023-02-12T13:52:38.539Z,6.80
2023-02-12T13:55:19.496Z,8.43
2023-02-12T13:57:46.069Z,7.75
2023-02-12T14:00:47.685Z,17.13
2023-02-12T14:03:14.552Z,9.00
2023-02-12T14:05:41.225Z,13.98
2023-02-12T14:08:08.036Z,7.63
2023-02-12T14:10:37.850Z,7.93
2023-02-12T14:13:18.410Z,9.00
2023-02-12T14:15:53.017Z,8.77
2023-02-12T14:18:34.580Z,10.13
2023-02-12T14:21:13.248Z,8.93
2023-02-12T14:23:43.436Z,7.70
2023-02-12T14:26:12.472Z,9.30
2023-02-12T14:28:47.955Z,8.45
2023-02-12T14:31:20.759Z,9.93
2023-02-12T14:33:52.156Z,6.78
2023-02-12T14:36:38.873Z,9.30
2023-02-12T14:39:20.402Z,8.40
2023-02-12T14:41:48.557Z,10.43
2023-02-12T14:44:17.933Z,10.65
2023-02-12T14:46:52.544Z,8.95
2023-02-12T14:49:35.554Z,8.80
2023-02-12T14:52:14.328Z,9.02
2023-02-12T14:54:46.651Z,8.82
2023-02-12T14:57:25.136Z,9.48
2023-02-12T14:59:55.707Z,9.90
2023-02-12T15:02:30.202Z,11.93
2023-02-12T15:05:01.849Z,11.18
2023-02-12T15:07:49.052Z,9.52
2023-02-12T15:10:18.867Z,9.13
2023-02-12T15:12:51.084Z,8.45
2023-02-12T15:15:27.865Z,9.15
2023-02-12T15:18:12.720Z,8.43
2023-02-12T15:20:50.723Z,7.95
2023-02-12T15:23:34.323Z,9.50
2023-02-12T15:26:01.681Z,9.93
2023-02-12T15:28:35.412Z,9.43
2023-02-12T15:31:03.320Z,7.45
2023-02-12T15:33:32.781Z,9.32
2023-02-12T15:36:01.330Z,9.10
2023-02-12T15:38:33.832Z,9.27
2023-02-12T15:41:01.724Z,8.40
2023-02-12T15:43:34.746Z,9.60
2023-02-12T15:46:02.978Z,8.52
2023-02-12T15:48:32.611Z,9.55
2023-02-12T15:51:10.267Z,7.45
2023-02-12T15:53:39.823Z,7.10
2023-02-12T15:56:12.248Z,10.27
2023-02-12T15:58:59.316Z,8.50
2023-02-12T16:01:29.287Z,10.18
2023-02-12T16:04:04.073Z,8.63
2023-02-12T16:06:36.751Z,7.28
2023-02-12T16:09:33.010Z,7.55
2023-02-12T16:12:02.742Z,7.50
2023-02-12T16:14:40.803Z,7.60
2023-02-12T16:17:25.697Z,10.35
2023-02-12T16:20:00.131Z,10.43
2023-02-12T16:22:47.586Z,7.22
2023-02-12T16:25:20.344Z,6.10
2023-02-12T16:28:18.753Z,5.78
2023-02-12T16:30:48.426Z,4.32
2023-02-12T16:33:36.492Z,7.22
2023-02-12T16:36:05.814Z,5.28
2023-02-12T16:38:50.024Z,6.00
2023-02-12T16:41:27.325Z,6.07
2023-02-12T16:44:00.259Z,5.88
2023-02-12T16:46:57.001Z,6.22
2023-02-12T16:49:26.638Z,6.43
2023-02-12T16:51:54.227Z,7.82
2023-02-12T16:54:33.069Z,7.30
2023-02-12T16:57:00.666Z,6.40
2023-02-12T16:59:28.063Z,7.47
2023-02-12T17:05:20.334Z,10.27
2023-02-12T17:07:47.142Z,10.13
2023-02-12T17:10:14.709Z,9.13
2023-02-12T17:12:49.017Z,8.20
2023-02-12T17:15:26.309Z,7.78
2023-02-12T17:17:53.334Z,7.47
2023-02-12T17:20:20.088Z,10.35
2023-02-12T17:22:54.719Z,7.70
2023-02-12T17:25:25.043Z,7.32
2023-02-12T17:27:51.752Z,8.07
2023-02-12T17:30:21.559Z,11.55
2023-02-12T17:32:50.246Z,9.50
2023-02-12T17:35:18.572Z,7.88
2023-02-12T17:37:45.424Z,10.98
2023-02-12T17:40:12.749Z,11.55
2023-02-12T17:42:39.423Z,9.52
2023-02-12T17:45:06.603Z,21.35
2023-02-12T17:47:39.668Z,10.98
2023-02-12T17:50:11.591Z,9.90
2023-02-12T17:52:38.474Z,11.90
2023-02-12T17:55:06.609Z,14.10
2023-02-12T17:57:33.671Z,12.85
2023-02-12T18:00:00.455Z,13.02
2023-02-12T18:02:27.299Z,11.77
2023-02-12T18:04:54.116Z,12.45
2023-02-12T18:07:20.814Z,11.18
2023-02-12T18:09:47.530Z,11.05
2023-02-12T18:12:14.344Z,13.60
2023-02-12T18:14:41.168Z,12.85
2023-02-12T18:17:07.831Z,14.43
2023-02-12T18:19:34.932Z,12.85
2023-02-12T18:22:01.763Z,12.38
2023-02-12T18:24:30.704Z,11.80
2023-02-12T18:26:57.417Z,12.82
2023-02-12T18:29:23.925Z,19.23
2023-02-12T18:31:50.562Z,11.75
2023-02-12T18:34:17.480Z,13.70
2023-02-12T18:36:44.049Z,11.40
2023-02-12T18:39:10.586Z,15.32
2023-02-12T18:41:37.328Z,12.10
2023-02-12T18:44:05.344Z,11.43
2023-02-12T18:46:32.801Z,11.45
2023-02-12T18:48:59.861Z,13.80
2023-02-12T18:51:29.044Z,14.23
2023-02-12T18:54:01.256Z,14.13
2023-02-12T18:56:29.871Z,13.35
2023-02-12T18:58:57.675Z,14.27
2023-02-12T19:01:25.456Z,13.38
2023-02-12T19:03:58.911Z,14.85
2023-02-12T19:06:26.522Z,15.60
2023-02-12T19:09:02.238Z,14.82
2023-02-12T19:11:29.873Z,14.90
2023-02-12T19:13:57.226Z,12.77
2023-02-12T19:16:24.796Z,13.77
2023-02-12T19:18:54.845Z,14.70
2023-02-12T19:21:22.547Z,10.63
2023-02-12T19:23:52.560Z,12.15
2023-02-12T19:26:19.210Z,12.35
2023-02-12T19:28:46.110Z,14.63
2023-02-12T19:31:25.935Z,15.23
2023-02-12T19:33:58.054Z,11.80
2023-02-12T19:36:27.047Z,15.23
2023-02-12T19:38:54.131Z,19.10
2023-02-12T19:41:23.265Z,13.95
2023-02-12T19:43:58.269Z,13.02
2023-02-12T19:46:26.823Z,12.68
2023-02-12T19:49:01.816Z,16.88
2023-02-12T19:51:30.077Z,12.02
2023-02-12T19:54:04.120Z,13.48
2023-02-12T19:56:31.274Z,20.60
2023-02-12T19:58:58.067Z,10.55
2023-02-12T20:01:27.090Z,13.98
2023-02-12T20:03:53.818Z,12.00
2023-02-12T20:06:25.550Z,14.30
2023-02-12T20:08:52.338Z,11.10
2023-02-12T20:11:21.221Z,11.38
2023-02-12T20:13:48.175Z,15.55
2023-02-12T20:16:17.313Z,15.10
2023-02-12T20:18:45.779Z,15.65
2023-02-12T20:21:15.093Z,13.07
2023-02-12T20:23:41.695Z,22.10
2023-02-12T20:26:10.173Z,14.23
2023-02-12T20:28:37.830Z,13.23
2023-02-12T20:31:15.702Z,15.05
2023-02-12T20:33:42.511Z,14.63
2023-02-12T20:36:09.576Z,18.23
2023-02-12T20:38:36.080Z,14.90
2023-02-12T20:41:04.662Z,15.23
2023-02-12T20:43:32.334Z,13.75
2023-02-12T20:46:09.845Z,20.15
2023-02-12T20:48:37.665Z,21.20
2023-02-12T20:51:06.865Z,19.63
2023-02-12T20:53:34.226Z,23.98
2023-02-12T20:56:06.074Z,20.85
2023-02-12T20:58:32.716Z,23.15
2023-02-12T21:01:07.150Z,21.17
2023-02-12T21:03:34.236Z,24.90
2023-02-12T21:06:01.538Z,23.00
2023-02-12T21:08:28.266Z,23.85
2023-02-12T21:11:05.164Z,22.40
2023-02-12T21:13:32.271Z,27.73
2023-02-12T21:16:14.465Z,28.80
2023-02-12T21:18:41.062Z,26.35
2023-02-12T21:21:10.919Z,27.45
2023-02-12T21:23:38.158Z,31.27
2023-02-12T21:26:06.724Z,30.25
2023-02-12T21:28:34.226Z,26.58
2023-02-12T21:31:13.731Z,30.83
2023-02-12T21:33:41.887Z,31.65
2023-02-12T21:36:13.687Z,36.67
2023-02-12T21:38:42.225Z,35.78
2023-02-12T21:41:15.975Z,34.60
2023-02-12T21:43:44.184Z,38.15
2023-02-12T21:46:11.240Z,37.00
2023-02-12T21:48:39.645Z,40.83
2023-02-12T21:51:06.640Z,40.70
2023-02-12T21:53:33.150Z,44.08
2023-02-12T21:56:04.002Z,44.33
2023-02-12T21:58:30.517Z,39.83
2023-02-12T22:00:57.353Z,41.47
2023-02-12T22:03:23.977Z,43.85
2023-02-12T22:05:50.652Z,43.97
2023-02-12T22:08:17.149Z,43.85
2023-02-12T22:10:43.716Z,44.72
2023-02-12T22:13:10.255Z,48.20
2023-02-12T22:15:36.808Z,42.90
2023-02-12T22:18:03.326Z,55.00
2023-02-12T22:20:29.844Z,47.80
2023-02-12T22:22:56.304Z,45.83
2023-02-12T22:25:22.990Z,49.28
2023-02-12T22:27:49.533Z,50.17
2023-02-12T22:30:17.818Z,46.47
2023-02-12T22:32:44.440Z,54.17
2023-02-12T22:35:11.063Z,44.33
2023-02-12T22:37:40.963Z,44.97
2023-02-12T22:40:08.790Z,45.25
2023-02-12T22:42:35.493Z,53.67
2023-02-12T22:45:02.075Z,54.05
2023-02-12T22:47:31.980Z,41.50
2023-02-12T22:49:59.655Z,42.60
2023-02-12T22:52:26.968Z,44.00
2023-02-12T22:54:54.087Z,46.55
2023-02-12T22:57:20.802Z,44.55
2023-02-12T22:59:49.055Z,51.72
2023-02-12T23:02:15.792Z,52.50
2023-02-12T23:04:42.338Z,51.50
2023-02-12T23:07:08.901Z,48.28
2023-02-12T23:09:35.513Z,61.50
2023-02-12T23:12:07.433Z,67.75
2023-02-12T23:14:36.043Z,59.63
2023-02-12T23:17:04.144Z,79.00
2023-02-12T23:19:30.933Z,51.50
2023-02-12T23:21:57.773Z,65.22
2023-02-12T23:24:25.709Z,68.93
2023-02-12T23:26:53.494Z,56.67
2023-02-12T23:29:20.547Z,80.32
2023-02-12T23:31:47.338Z,52.90
2023-02-12T23:34:13.913Z,66.25
2023-02-12T23:36:40.499Z,54.58
2023-02-12T23:39:07.561Z,55.78
2023-02-12T23:41:34.270Z,61.92
2023-02-12T23:44:00.779Z,61.20
2023-02-12T23:46:27.316Z,62.72
2023-02-12T23:48:53.805Z,61.00
2023-02-12T23:51:20.285Z,57.78
2023-02-12T23:53:46.798Z,58.83
2023-02-12T23:56:13.298Z,64.47
2023-02-12T23:58:39.794Z,43.25
